Time;durP1;ratioP1;P1;durP2;ratioP2;P2;SDS_P1;SDS_P2;PMS_P1;PMS_P2;Temp;Humidity;BMP_temperature;BMP_pressure;BME280_temperature;BME280_humidity;BME280_pressure;Samples;Min_cycle;Max_cycle;Signal;HPM_P1;HPM_P2
2022/07/19 00:01:04;;;;;;;15.40;4.57;;;;;;;21.08;66.69;101693.69;5009471;28;20046;-87
2022/07/19 00:03:29;;;;;;;10.63;4.38;;;;;;;21.08;67.00;101696.41;5008117;28;20044;-87
2022/07/19 00:05:58;;;;;;;5.20;4.00;;;;;;;21.02;66.78;101692.97;5007985;28;20085;-87
2022/07/19 00:08:23;;;;;;;14.25;4.57;;;;;;;20.91;67.13;101680.72;5017526;23;20042;-87
2022/07/19 00:10:48;;;;;;;9.43;4.27;;;;;;;20.90;66.73;101686.47;5026366;28;20464;-87
2022/07/19 00:13:13;;;;;;;6.73;4.30;;;;;;;20.89;66.38;101677.50;5025943;28;20030;-87
2022/07/19 00:15:39;;;;;;;8.13;4.60;;;;;;;20.78;67.17;101676.13;5019627;28;20053;-87
2022/07/19 00:18:04;;;;;;;8.90;4.20;;;;;;;20.78;66.81;101684.28;4999530;28;20121;-87
2022/07/19 00:20:29;;;;;;;6.10;4.10;;;;;;;20.77;66.68;101682.69;5017494;28;20293;-87
2022/07/19 00:22:55;;;;;;;5.63;4.30;;;;;;;20.70;67.15;101681.13;5018092;28;20026;-86
2022/07/19 00:25:20;;;;;;;8.70;4.10;;;;;;;20.67;67.09;101673.56;5015119;28;20018;-87
2022/07/19 00:27:45;;;;;;;6.73;4.00;;;;;;;20.64;67.62;101676.13;5015872;28;20056;-87
2022/07/19 00:30:11;;;;;;;7.57;4.63;;;;;;;20.53;68.06;101673.63;5017889;28;20032;-87
2022/07/19 00:32:36;;;;;;;8.15;4.22;;;;;;;20.47;68.01;101672.13;5000499;28;20018;-87
2022/07/19 00:35:02;;;;;;;6.07;3.73;;;;;;;20.48;67.91;101668.28;5007530;28;20026;-87
2022/07/19 00:37:27;;;;;;;9.33;4.27;;;;;;;20.46;67.94;101678.66;5012064;28;20038;-87
2022/07/19 00:39:53;;;;;;;7.45;4.55;;;;;;;20.39;67.87;101667.38;5031896;28;20014;-88
2022/07/19 00:42:18;;;;;;;5.47;4.30;;;;;;;20.33;68.10;101666.69;5034674;28;20073;-87
2022/07/19 00:44:43;;;;;;;9.77;4.13;;;;;;;20.33;68.35;101663.16;5035711;28;20026;-87
2022/07/19 00:47:09;;;;;;;6.50;4.17;;;;;;;20.32;68.31;101670.50;5032701;28;20014;-87
2022/07/19 00:49:34;;;;;;;9.37;4.57;;;;;;;20.26;68.28;101667.09;5020472;28;20034;-87
2022/07/19 00:52:02;;;;;;;9.18;4.47;;;;;;;20.16;68.67;101664.59;5001405;28;20029;-87
2022/07/19 00:54:28;;;;;;;6.57;4.33;;;;;;;20.11;69.10;101660.03;5015594;28;20033;-87
2022/07/19 00:56:54;;;;;;;8.57;4.57;;;;;;;20.08;69.69;101665.28;5013754;28;20963;-87
2022/07/19 00:59:21;;;;;;;7.93;4.10;;;;;;;20.09;69.05;101664.19;5011741;28;20033;-87
2022/07/19 01:01:46;;;;;;;7.55;4.40;;;;;;;20.01;69.37;101659.44;5013023;28;20528;-87
2022/07/19 01:04:13;;;;;;;9.88;4.18;;;;;;;19.96;69.46;101666.59;5012294;28;20105;-87
2022/07/19 01:06:40;;;;;;;6.23;4.50;;;;;;;19.93;69.16;101656.31;5010249;28;20032;-88
2022/07/19 01:09:07;;;;;;;8.15;4.38;;;;;;;19.94;69.17;101662.56;5013349;28;20030;-87
2022/07/19 01:11:33;;;;;;;7.65;4.50;;;;;;;19.89;69.43;101663.47;5012162;28;20412;-87
2022/07/19 01:13:58;;;;;;;19.40;4.68;;;;;;;19.80;69.27;101651.66;5012410;28;20032;-87
2022/07/19 01:16:23;;;;;;;7.13;4.57;;;;;;;19.79;69.37;101659.00;5063868;23;20025;-87
2022/07/19 01:18:50;;;;;;;10.13;4.60;;;;;;;19.78;69.38;101662.81;5012100;28;20109;-87
2022/07/19 01:21:21;;;;;;;9.02;4.50;;;;;;;19.70;69.31;101660.81;5012074;28;21643;-87
2022/07/19 01:23:47;;;;;;;8.50;4.80;;;;;;;19.65;70.51;101669.03;5012638;28;20026;-86
2022/07/19 01:26:12;;;;;;;11.63;4.40;;;;;;;19.61;69.86;101666.13;5012179;28;20029;-88
2022/07/19 01:40:33;;;;;;;7.90;4.13;;;;;;;19.35;70.11;101661.13;5036793;23;20064;-87
2022/07/19 01:46:33;;;;;;;5.63;4.03;;;;;;;19.27;70.22;101655.56;4936579;29;20526;-88
2022/07/19 01:49:42;;;;;;;16.45;4.90;;;;;;;19.21;70.60;101661.06;4923538;29;20104;-87
2022/07/19 01:52:07;;;;;;;10.82;4.65;;;;;;;19.15;72.11;101662.25;4914303;29;20056;-88
2022/07/19 01:54:32;;;;;;;8.50;4.70;;;;;;;19.16;72.48;101661.16;4914885;29;20024;-87
2022/07/19 01:56:58;;;;;;;9.13;4.77;;;;;;;19.08;73.15;101661.81;4945470;28;20038;-87
2022/07/19 01:59:24;;;;;;;6.40;4.85;;;;;;;19.00;73.38;101660.59;4990840;28;20500;-87
2022/07/19 02:01:49;;;;;;;7.33;4.67;;;;;;;18.97;73.44;101654.94;4972038;28;20074;-88
2022/07/19 02:04:14;;;;;;;7.70;4.30;;;;;;;18.96;73.96;101666.91;4985680;28;20022;-87
2022/07/19 02:06:39;;;;;;;7.10;4.78;;;;;;;18.92;74.06;101653.88;4991523;28;20034;-87
2022/07/19 02:09:05;;;;;;;5.90;4.30;;;;;;;18.87;74.79;101662.09;4990858;28;20401;-87
2022/07/19 02:11:36;;;;;;;7.20;4.60;;;;;;;18.87;74.42;101662.09;4981442;28;20030;-88
2022/07/19 02:14:06;;;;;;;8.60;4.93;;;;;;;18.81;74.97;101657.81;4986549;28;20041;-87
2022/07/19 02:16:31;;;;;;;8.63;5.00;;;;;;;18.78;74.80;101658.44;4990909;28;20061;-87
2022/07/19 02:18:57;;;;;;;6.43;4.63;;;;;;;18.70;74.89;101650.94;4991553;28;20662;-88
2022/07/19 02:21:25;;;;;;;9.20;5.10;;;;;;;18.70;75.16;101650.94;4991445;28;20033;-87
2022/07/19 02:23:51;;;;;;;9.05;4.97;;;;;;;18.68;75.04;101642.28;4991795;28;20022;-87
2022/07/19 02:26:17;;;;;;;8.13;5.33;;;;;;;18.66;75.60;101647.19;4991713;28;20035;-87
2022/07/19 02:28:42;;;;;;;6.90;5.35;;;;;;;18.61;75.50;101648.91;4972644;28;20034;-88
2022/07/19 02:31:07;;;;;;;12.43;5.60;;;;;;;18.58;75.53;101645.94;4992061;28;20026;-88
2022/07/19 02:33:33;;;;;;;8.00;5.37;;;;;;;18.52;75.50;101642.50;4990498;28;20498;-87
2022/07/19 02:35:58;;;;;;;8.80;5.40;;;;;;;18.44;76.15;101635.81;4990133;28;20041;-87
2022/07/19 02:40:54;;;;;;;10.70;5.70;;;;;;;18.39;76.51;101629.66;5010752;28;20038;-87
2022/07/19 02:43:20;;;;;;;10.07;6.00;;;;;;;18.35;76.99;101631.31;5010231;28;20273;-87
2022/07/19 02:45:45;;;;;;;8.30;5.70;;;;;;;18.34;76.86;101635.13;5029136;28;20179;-88
2022/07/19 02:51:16;;;;;;;9.70;5.78;;;;;;;18.26;75.84;101637.38;5919713;23;20043;-94
2022/07/19 02:54:10;;;;;;;12.65;6.47;;;;;;;18.24;76.23;101628.75;5017999;28;20034;-94
2022/07/19 02:56:38;;;;;;;10.55;5.90;;;;;;;18.17;76.93;101622.88;5014106;28;20105;-95
2022/07/19 03:04:14;;;;;;;10.85;5.95;;;;;;;18.04;77.40;101621.66;5245639;23;20057;-91
2022/07/19 03:06:40;;;;;;;8.43;5.82;;;;;;;18.08;77.32;101625.41;5028299;28;20029;-94
2022/07/19 03:09:05;;;;;;;11.87;6.20;;;;;;;17.96;78.22;101616.84;5019469;28;20116;-87
2022/07/19 03:15:44;;;;;;;;;;;;;;;;;;;;;
2022/07/19 03:18:10;;;;;;;6.97;6.17;;;;;;;17.89;77.99;101613.66;5006198;28;20034;-85
2022/07/19 03:20:47;;;;;;;9.97;6.53;;;;;;;17.92;77.22;101615.81;5014302;28;20364;-85
2022/07/19 03:23:19;;;;;;;13.27;6.50;;;;;;;17.85;77.61;101605.31;5013904;28;20030;-85
2022/07/19 03:26:40;;;;;;;9.67;6.30;;;;;;;17.81;76.71;101598.84;4995057;28;20300;-85
2022/07/19 03:29:05;;;;;;;10.07;6.07;;;;;;;17.83;78.06;101608.28;5013003;28;20052;-85
2022/07/19 03:31:30;;;;;;;9.50;6.73;;;;;;;17.75;78.20;101589.97;5032940;28;20030;-85
2022/07/19 03:34:01;;;;;;;9.95;6.03;;;;;;;17.75;78.24;101594.56;5033342;28;20024;-84
2022/07/19 03:47:55;;;;;;;11.43;7.10;;;;;;;17.58;77.67;101600.47;5078205;23;20049;-85
2022/07/19 03:50:20;;;;;;;11.50;6.82;;;;;;;17.64;78.08;101607.41;5032284;28;20029;-85
2022/07/19 03:52:45;;;;;;;11.13;7.97;;;;;;;17.56;77.91;101604.25;5032711;28;20092;-85
2022/07/19 03:55:42;;;;;;;9.67;7.60;;;;;;;17.68;77.50;101619.31;5030923;28;20343;-88
2022/07/19 04:01:50;;;;;;;21.60;7.73;;;;;;;17.71;76.44;101616.81;4952202;29;20618;-84
2022/07/19 04:07:37;;;;;;;13.25;8.10;;;;;;;17.65;77.66;101611.75;4950982;29;20094;-83
2022/07/19 04:10:12;;;;;;;10.13;8.00;;;;;;;17.72;77.66;101614.94;4951239;29;20527;-82
2022/07/19 04:12:37;;;;;;;10.70;8.13;;;;;;;17.76;76.94;101609.75;4951394;29;20463;-83
2022/07/19 04:15:03;;;;;;;15.20;7.63;;;;;;;17.74;77.27;101598.38;4969096;28;20087;-84
2022/07/19 04:17:44;;;;;;;12.83;8.50;;;;;;;17.79;76.49;101610.00;5032200;28;20037;-84
2022/07/19 04:20:35;;;;;;;14.70;8.77;;;;;;;17.87;76.67;101613.97;5030364;28;20037;-82
2022/07/19 04:23:01;;;;;;;12.95;9.00;;;;;;;17.99;76.95;101614.41;5031004;28;20026;-82
2022/07/19 04:25:35;;;;;;;12.37;8.63;;;;;;;18.00;76.68;101613.31;5030009;28;20025;-82
2022/07/19 04:31:58;;;;;;;15.65;8.95;;;;;;;18.23;75.06;101621.72;4950367;29;20455;-81
2022/07/19 04:34:39;;;;;;;10.35;9.23;;;;;;;18.16;75.39;101600.38;4932980;29;20066;-81
2022/07/19 04:37:34;;;;;;;15.85;9.40;;;;;;;18.30;75.48;101614.00;5003928;28;20053;-81
2022/07/19 04:40:55;;;;;;;11.40;9.00;;;;;;;18.35;74.92;101623.97;5030453;28;20480;-82
2022/07/19 04:43:49;;;;;;;14.02;9.77;;;;;;;18.43;74.38;101619.84;5028793;28;20037;-81
2022/07/19 04:46:46;;;;;;;14.10;9.25;;;;;;;18.39;74.84;101602.53;5022777;28;20040;-82
2022/07/19 04:49:11;;;;;;;14.02;9.55;;;;;;;18.52;75.26;101612.66;4997621;28;20098;-81
2022/07/19 04:51:36;;;;;;;15.50;9.70;;;;;;;18.54;75.51;101617.75;5028807;28;20037;-81
2022/07/19 04:54:23;;;;;;;12.67;9.67;;;;;;;18.74;74.49;101624.81;5030529;28;20030;-82
2022/07/19 04:56:52;;;;;;;16.98;10.05;;;;;;;18.83;74.23;101623.06;4994987;28;20052;-83
2022/07/19 04:59:24;;;;;;;19.42;11.60;;;;;;;18.91;74.08;101627.00;5023661;28;20029;-84
2022/07/19 05:01:49;;;;;;;15.02;10.73;;;;;;;19.16;73.39;101623.13;5014394;28;20033;-83
2022/07/19 05:04:22;;;;;;;17.83;10.30;;;;;;;19.90;71.35;101612.63;5030765;28;20417;-83
2022/07/19 05:06:56;;;;;;;16.30;10.45;;;;;;;20.76;68.63;101607.53;5009431;28;20054;-83
2022/07/19 05:09:59;;;;;;;;;;;;;;;;;;;;;
2022/07/19 05:28:13;;;;;;;20.90;12.23;;;;;;;24.84;54.98;101630.28;6051724;23;20025;-88
2022/07/19 06:04:00;;;;;;;23.15;14.20;;;;;;;25.38;49.39;101629.41;5023886;23;20042;-87
2022/07/19 06:10:36;;;;;;;21.02;14.85;;;;;;;24.97;50.36;101644.03;4991063;28;20413;-87
2022/07/19 06:32:16;;;;;;;19.07;11.30;;;;;;;24.30;51.47;101629.06;4931392;29;20816;-88
2022/07/19 06:36:21;;;;;;;20.27;11.55;;;;;;;24.30;51.24;101629.06;4910394;29;20052;-87
2022/07/19 07:18:16;;;;;;;;;;;;;;;;;;;;;
2022/07/19 07:21:37;;;;;;;;;;;;;;;;;;;;;
2022/07/19 07:28:01;;;;;;;15.10;6.90;;;;;;;26.24;48.49;101627.84;4907168;29;20397;-86
2022/07/19 07:30:27;;;;;;;14.85;6.53;;;;;;;26.32;47.77;101611.59;4895994;29;20063;-86
2022/07/19 07:33:17;;;;;;;17.38;7.50;;;;;;;26.42;48.91;101611.09;4977661;28;20030;-86
2022/07/19 07:36:16;;;;;;;17.83;6.53;;;;;;;26.72;48.00;101628.06;4997272;28;20050;-86
2022/07/19 07:46:22;;;;;;;9.45;6.07;;;;;;;27.38;46.24;101622.34;4934391;29;20171;-86
2022/07/19 07:50:13;;;;;;;17.15;5.18;;;;;;;27.54;46.99;101611.38;4901072;29;20496;-86
2022/07/19 07:52:47;;;;;;;15.07;4.88;;;;;;;27.78;45.27;101604.88;4887831;29;20045;-88
2022/07/19 07:55:57;;;;;;;10.10;4.40;;;;;;;28.01;45.12;101617.16;4889733;29;20025;-87
2022/07/19 07:58:34;;;;;;;10.27;4.30;;;;;;;28.00;42.92;101601.81;4863368;29;20297;-86
2022/07/19 08:01:09;;;;;;;13.20;4.50;;;;;;;28.30;43.51;101615.09;4910008;29;20064;-87
2022/07/19 08:06:57;;;;;;;12.90;4.32;;;;;;;28.55;40.96;101604.56;5015296;28;20119;-88
2022/07/19 08:09:22;;;;;;;16.37;3.97;;;;;;;28.65;40.48;101600.44;5009653;28;20026;-84
2022/07/19 08:11:48;;;;;;;14.23;4.30;;;;;;;28.78;40.78;101599.13;5001295;28;20049;-87
2022/07/19 08:14:21;;;;;;;9.90;4.07;;;;;;;29.04;40.06;101597.63;4995363;28;20034;-84
2022/07/19 08:17:00;;;;;;;16.40;4.22;;;;;;;29.15;39.38;101592.28;4969792;28;20033;-86
2022/07/19 08:19:26;;;;;;;17.07;4.70;;;;;;;29.32;39.91;101602.84;4982420;28;20038;-86
2022/07/19 08:21:51;;;;;;;13.85;4.70;;;;;;;29.51;38.81;101603.16;5014000;28;20029;-86
2022/07/19 08:24:17;;;;;;;11.70;3.90;;;;;;;29.54;39.04;101603.22;5011210;28;20022;-86
2022/07/19 08:26:43;;;;;;;10.43;4.63;;;;;;;29.65;40.18;101608.91;4994981;28;20046;-85
2022/07/19 08:29:09;;;;;;;13.05;4.28;;;;;;;29.85;39.47;101608.81;5002204;28;20037;-86
2022/07/19 08:31:35;;;;;;;11.00;4.70;;;;;;;29.87;38.98;101600.94;4988350;28;20034;-85
2022/07/19 08:34:01;;;;;;;15.43;4.90;;;;;;;29.92;38.83;101601.41;5027153;28;20024;-87
2022/07/19 08:36:27;;;;;;;10.67;4.00;;;;;;;30.09;37.88;101601.28;4998453;28;20010;-87
2022/07/19 08:38:55;;;;;;;16.55;4.72;;;;;;;30.22;38.41;101592.34;4994604;28;20116;-86
2022/07/19 08:41:22;;;;;;;13.73;4.20;;;;;;;30.43;38.38;101604.84;5003337;28;20018;-86
2022/07/19 08:43:49;;;;;;;12.55;4.68;;;;;;;30.55;39.36;101592.78;5002842;28;20108;-86
2022/07/19 08:46:18;;;;;;;17.35;4.60;;;;;;;30.62;38.44;101587.34;4998721;28;20530;-86
2022/07/19 08:48:45;;;;;;;8.93;4.07;;;;;;;30.79;36.57;101590.66;5001155;28;20099;-89
2022/07/19 08:51:12;;;;;;;7.67;4.60;;;;;;;30.98;37.10;101586.88;5008035;28;20300;-86
2022/07/19 08:53:40;;;;;;;10.13;3.97;;;;;;;31.16;35.86;101592.63;4996385;28;20560;-87
2022/07/19 08:57:56;;;;;;;15.00;4.20;;;;;;;31.16;36.27;101583.50;4999789;28;20022;-87
2022/07/19 08:58:52;;;;;;;8.88;4.47;;;;;;;31.21;34.77;101583.97;5004999;28;20099;-86
2022/07/19 09:01:18;;;;;;;11.10;4.18;;;;;;;31.37;33.54;101588.44;5004388;28;20031;-88
2022/07/19 09:04:07;;;;;;;10.38;3.80;;;;;;;31.45;35.36;101581.75;4981692;28;20038;-87
2022/07/19 09:06:50;;;;;;;7.67;3.80;;;;;;;31.72;34.73;101581.59;4996803;28;20395;-87
2022/07/19 09:09:19;;;;;;;12.93;4.27;;;;;;;31.83;34.13;101585.19;4992644;28;20312;-86
2022/07/19 09:11:50;;;;;;;12.70;3.90;;;;;;;32.02;33.35;101581.34;5002097;28;20148;-89
2022/07/19 09:14:52;;;;;;;13.98;4.15;;;;;;;32.26;34.01;101578.28;5005186;28;20025;-87
2022/07/19 09:17:19;;;;;;;12.45;3.80;;;;;;;32.45;33.34;101577.16;5004134;28;20045;-87
2022/07/19 09:19:46;;;;;;;5.95;4.15;;;;;;;32.50;31.36;101578.78;4970487;28;20497;-87
2022/07/19 09:22:19;;;;;;;7.40;4.25;;;;;;;32.55;33.05;101584.75;4998487;28;20034;-86
2022/07/19 09:24:46;;;;;;;6.22;3.60;;;;;;;32.76;32.33;101583.97;4997681;28;20113;-88
2022/07/19 09:27:14;;;;;;;11.13;3.67;;;;;;;32.85;31.20;101574.53;5006475;28;20770;-87
2022/07/19 09:29:46;;;;;;;9.50;4.25;;;;;;;33.00;31.53;101575.31;5003857;28;20056;-87
2022/07/19 09:32:17;;;;;;;7.13;3.93;;;;;;;33.13;31.37;101570.97;4980606;28;20034;-87
2022/07/19 09:34:55;;;;;;;9.70;4.20;;;;;;;33.24;31.17;101573.72;4997277;28;20332;-86
2022/07/19 09:37:22;;;;;;;8.50;3.90;;;;;;;33.32;30.25;101568.97;5002861;28;20110;-86
2022/07/19 09:39:55;;;;;;;9.45;4.65;;;;;;;33.35;29.46;101565.38;4991960;28;20133;-86
2022/07/19 09:42:36;;;;;;;9.77;4.53;;;;;;;33.47;29.94;101564.19;4989359;28;20030;-89
2022/07/19 09:45:05;;;;;;;8.80;4.30;;;;;;;33.62;30.06;101559.41;4997854;28;21738;-86
2022/07/19 09:47:39;;;;;;;8.43;3.88;;;;;;;33.66;30.31;101566.53;4997152;28;20021;-86
2022/07/19 09:50:08;;;;;;;17.20;4.50;;;;;;;33.87;29.57;101558.56;5008723;28;20489;-86
2022/07/19 09:52:34;;;;;;;13.68;4.32;;;;;;;34.17;29.15;101557.25;5005586;28;20485;-88
2022/07/19 09:55:03;;;;;;;7.85;4.20;;;;;;;34.29;29.59;101556.78;5005579;28;20029;-88
2022/07/19 09:57:35;;;;;;;9.70;4.40;;;;;;;34.33;28.83;101556.78;4998202;28;20033;-87
2022/07/19 10:00:05;;;;;;;9.37;4.77;;;;;;;34.53;29.26;101555.09;5001447;28;20664;-86
2022/07/19 10:02:36;;;;;;;9.55;4.80;;;;;;;34.34;27.45;101552.78;4997041;28;20022;-87
2022/07/19 10:05:25;;;;;;;12.82;4.30;;;;;;;34.67;28.53;101545.84;5191639;23;20050;-90
2022/07/19 10:08:18;;;;;;;6.82;4.38;;;;;;;34.92;29.98;101550.44;5008437;28;20049;-88
2022/07/19 10:10:45;;;;;;;7.95;4.18;;;;;;;35.02;28.80;101541.22;5013628;28;20029;-85
2022/07/19 10:13:22;;;;;;;11.10;3.90;;;;;;;35.21;26.89;101536.28;5020827;28;20049;-87
2022/07/19 10:15:56;;;;;;;8.95;4.22;;;;;;;35.23;27.57;101533.09;5009269;28;20034;-87
2022/07/19 10:18:51;;;;;;;9.40;4.70;;;;;;;35.37;28.22;101532.16;5009720;28;20480;-87
2022/07/19 10:21:30;;;;;;;12.85;4.07;;;;;;;35.57;27.01;101535.94;4991132;28;20593;-86
2022/07/19 10:31:02;;;;;;;6.15;4.00;;;;;;;35.82;27.58;101534.88;4898688;29;20060;-87
2022/07/19 10:34:20;;;;;;;9.18;4.32;;;;;;;36.01;26.48;101530.66;4925447;29;20036;-87
2022/07/19 10:36:55;;;;;;;6.63;4.07;;;;;;;36.17;25.97;101520.88;4916535;29;20048;-86
2022/07/19 10:39:39;;;;;;;5.85;3.75;;;;;;;36.45;26.19;101532.88;4916794;29;20436;-88
2022/07/19 10:52:01;;;;;;;7.75;4.25;;;;;;;36.50;23.74;101508.06;4932320;29;20039;-89
2022/07/19 10:58:13;;;;;;;9.30;4.07;;;;;;;36.70;24.37;101506.59;4928908;29;20645;-88
2022/07/19 11:01:14;;;;;;;8.70;4.18;;;;;;;36.66;22.86;101504.63;4929345;29;20028;-88
2022/07/19 11:30:59;;;;;;;7.00;3.80;;;;;;;38.12;21.91;101481.09;5249943;23;20053;-88
2022/07/19 11:48:49;;;;;;;10.18;4.45;;;;;;;38.77;21.06;101433.97;5545644;23;20079;-89
2022/07/19 11:51:39;;;;;;;11.60;3.90;;;;;;;38.64;21.26;101439.50;5030579;28;20075;-87
2022/07/19 12:04:35;;;;;;;8.32;4.25;;;;;;;38.89;20.57;101438.06;5028804;28;20515;-88
2022/07/19 12:11:13;;;;;;;;;;;;;;;;;;;;;
2022/07/19 12:21:31;;;;;;;6.82;3.60;;;;;;;38.90;19.92;101395.63;4964657;28;20038;-89
2022/07/19 12:24:53;;;;;;;5.53;3.30;;;;;;;39.17;19.92;101407.69;4949511;28;20036;-88
2022/07/19 12:27:28;;;;;;;8.40;3.27;;;;;;;39.16;18.44;101398.50;4896533;29;20823;-88
2022/07/19 12:30:22;;;;;;;5.85;3.10;;;;;;;39.16;18.44;101390.09;4880273;29;20060;-88
2022/07/19 12:36:38;;;;;;;6.32;3.00;;;;;;;39.08;18.23;101400.69;4951164;28;21740;-88
2022/07/19 12:43:39;;;;;;;5.40;3.30;;;;;;;39.23;18.30;101383.50;4947517;28;20092;-83
2022/07/19 12:46:07;;;;;;;3.67;3.38;;;;;;;39.21;17.18;101380.34;4962652;28;20030;-85
2022/07/19 12:48:32;;;;;;;5.63;4.00;;;;;;;39.09;17.01;101370.69;4988319;28;20023;-86
2022/07/19 12:51:08;;;;;;;9.73;3.97;;;;;;;39.23;17.32;101372.28;4988944;28;20037;-86
2022/07/19 12:53:40;;;;;;;8.48;3.60;;;;;;;39.07;18.13;101370.34;4972938;28;20035;-86
2022/07/19 12:56:11;;;;;;;6.07;3.35;;;;;;;39.26;18.67;101365.75;4987623;28;20030;-83
2022/07/19 13:01:35;;;;;;;9.05;3.83;;;;;;;39.45;18.31;101380.06;4987741;28;20080;-83
2022/07/19 13:07:19;;;;;;;8.27;4.57;;;;;;;39.52;18.52;101366.63;4982802;28;20294;-84
2022/07/19 13:12:35;;;;;;;7.22;4.10;;;;;;;39.61;18.04;101362.34;4975324;28;20054;-85
2022/07/19 13:15:36;;;;;;;5.38;4.00;;;;;;;39.67;18.80;101360.56;4979223;28;20038;-84
2022/07/19 13:18:01;;;;;;;8.82;4.57;;;;;;;39.75;18.88;101349.94;4987788;28;20030;-83
2022/07/19 13:20:29;;;;;;;7.43;4.20;;;;;;;39.85;18.49;101345.97;4977641;28;20037;-85
2022/07/19 13:23:11;;;;;;;9.65;4.35;;;;;;;40.03;18.90;101347.41;4991145;28;20030;-86
2022/07/19 13:29:17;;;;;;;13.55;4.50;;;;;;;40.04;17.82;101332.94;4988526;28;20056;-85
2022/07/19 13:32:19;;;;;;;11.23;5.00;;;;;;;39.94;17.88;101322.84;5012894;28;20033;-86
2022/07/19 13:35:09;;;;;;;15.13;4.60;;;;;;;40.15;17.39;101332.56;5006171;28;20329;-86
2022/07/19 13:37:34;;;;;;;7.70;4.43;;;;;;;40.31;16.41;101331.63;5002465;28;20034;-86
2022/07/19 13:43:09;;;;;;;12.57;4.50;;;;;;;40.71;16.94;101321.84;4986211;28;20289;-86
2022/07/19 13:50:39;;;;;;;7.65;4.43;;;;;;;40.65;17.69;101304.00;5690029;23;20058;-86
2022/07/19 14:05:32;;;;;;;11.03;4.27;;;;;;;40.92;16.83;101275.31;5974815;23;20429;-87
2022/07/19 14:07:57;;;;;;;9.53;4.37;;;;;;;40.68;16.20;101261.75;4947694;28;20350;-87
2022/07/19 14:10:29;;;;;;;9.43;4.20;;;;;;;40.74;16.18;101273.16;4931167;29;20032;-86
2022/07/19 14:12:57;;;;;;;11.03;3.77;;;;;;;40.72;16.29;101278.47;4976624;28;20049;-86
2022/07/19 14:15:42;;;;;;;7.13;4.30;;;;;;;40.68;15.32;101258.16;5004754;28;20683;-85
2022/07/19 14:21:34;;;;;;;11.70;4.50;;;;;;;40.67;15.63;101253.78;5010156;28;20665;-86
2022/07/19 14:24:00;;;;;;;7.05;3.97;;;;;;;40.79;14.39;101254.97;5011199;28;20501;-86
2022/07/19 14:27:02;;;;;;;8.75;4.38;;;;;;;41.22;16.51;101258.13;5030167;23;20045;-87
2022/07/19 14:29:30;;;;;;;11.23;4.27;;;;;;;40.72;15.57;101251.16;5027302;28;20075;-84
2022/07/19 14:31:56;;;;;;;6.50;4.20;;;;;;;41.17;16.61;101234.25;5029186;28;20052;-84
2022/07/19 14:34:23;;;;;;;7.20;3.97;;;;;;;41.28;14.95;101239.41;5031041;28;20026;-83
2022/07/19 14:36:48;;;;;;;6.53;3.92;;;;;;;41.25;15.06;101240.34;5012511;28;20026;-84
2022/07/19 14:39:13;;;;;;;13.87;4.30;;;;;;;41.23;13.70;101237.97;5031249;28;20606;-85
2022/07/19 14:41:42;;;;;;;6.83;4.50;;;;;;;41.20;14.78;101233.28;5029912;28;20030;-83
2022/07/19 14:50:40;;;;;;;13.20;4.27;;;;;;;41.35;13.54;101229.91;4944172;28;20617;-85
2022/07/19 14:53:30;;;;;;;8.13;4.15;;;;;;;41.52;14.08;101236.06;4953746;29;20070;-86
2022/07/19 14:56:05;;;;;;;12.17;4.47;;;;;;;41.35;15.01;101218.66;4943350;29;20174;-86
2022/07/19 14:59:07;;;;;;;16.43;4.63;;;;;;;41.77;14.69;101224.53;4949258;28;20897;-85
2022/07/19 15:02:22;;;;;;;7.40;4.55;;;;;;;42.05;14.33;101220.97;4956467;29;20035;-87
2022/07/19 15:05:00;;;;;;;11.95;4.57;;;;;;;42.26;14.90;101213.56;5073968;23;20021;-86
2022/07/19 15:17:51;;;;;;;10.77;4.20;;;;;;;42.34;13.38;101186.66;5007736;28;20352;-87
2022/07/19 15:21:03;;;;;;;5.68;4.63;;;;;;;42.62;13.62;101189.41;5038621;28;20017;-87
2022/07/19 15:23:45;;;;;;;7.43;4.40;;;;;;;42.44;13.40;101181.03;5018061;28;20025;-88
2022/07/19 15:26:21;;;;;;;6.85;4.05;;;;;;;43.00;13.21;101175.97;5005238;28;20062;-87
2022/07/19 15:29:05;;;;;;;7.88;4.15;;;;;;;42.97;12.42;101172.06;5009765;28;20117;-87
2022/07/19 15:31:43;;;;;;;10.80;4.40;;;;;;;43.26;13.09;101176.31;5009007;28;20032;-87
2022/07/19 15:34:13;;;;;;;8.20;4.43;;;;;;;43.18;12.52;101160.97;5012249;28;20089;-89
2022/07/19 15:37:02;;;;;;;8.32;4.53;;;;;;;43.48;13.44;101172.38;5000256;28;20388;-86
2022/07/19 15:39:33;;;;;;;7.20;4.55;;;;;;;43.36;12.55;101164.97;4961138;28;20131;-87
2022/07/19 15:45:09;;;;;;;12.47;4.80;;;;;;;43.30;12.49;101158.41;5000415;28;20061;-88
2022/07/19 15:48:09;;;;;;;9.50;5.10;;;;;;;43.27;12.73;101151.72;4987650;28;20384;-86
2022/07/19 15:51:08;;;;;;;14.25;4.80;;;;;;;43.18;12.87;101148.94;4951327;28;20050;-88
2022/07/19 15:53:39;;;;;;;11.82;4.72;;;;;;;42.98;12.43;101145.44;4997523;28;20047;-86
2022/07/19 15:56:13;;;;;;;9.15;4.85;;;;;;;42.77;12.60;101124.72;5007814;28;20018;-88
2022/07/19 15:59:17;;;;;;;8.32;5.00;;;;;;;43.09;13.22;101144.91;5010446;28;20038;-88
2022/07/19 16:02:43;;;;;;;7.60;5.00;;;;;;;42.93;13.10;101131.25;4997960;28;20034;-88
2022/07/19 16:05:32;;;;;;;10.55;4.63;;;;;;;42.61;12.40;101130.75;4947617;29;20047;-92
2022/07/19 16:14:14;;;;;;;9.57;4.65;;;;;;;42.44;11.68;101099.38;5013408;28;20053;-85
2022/07/19 16:33:27;;;;;;;9.15;4.38;;;;;;;42.03;12.69;101086.38;4915651;29;20131;-87
2022/07/19 16:42:52;;;;;;;8.50;4.60;;;;;;;41.63;13.40;101073.31;4935752;29;20290;-87
2022/07/19 17:10:06;;;;;;;8.05;3.72;;;;;;;41.37;12.30;101064.38;5290531;23;20065;-86
2022/07/19 17:12:32;;;;;;;4.37;3.80;;;;;;;41.02;12.62;101065.44;5032569;28;20028;-88
2022/07/19 17:15:16;;;;;;;5.95;4.22;;;;;;;41.27;13.02;101046.75;5195445;23;20057;-87
2022/07/19 17:26:46;;;;;;;5.50;3.90;;;;;;;40.88;13.62;101056.38;5008669;28;20061;-85
2022/07/19 17:32:42;;;;;;;5.45;4.10;;;;;;;40.78;13.39;101060.41;5012748;28;20080;-86
2022/07/19 17:35:29;;;;;;;;;;;;;;;;;;;;;
2022/07/19 17:38:14;;;;;;;;;;;;;;;;;;;;;
2022/07/19 17:46:45;;;;;;;7.93;4.40;;;;;;;40.15;14.38;101042.81;5164484;23;20081;-86
2022/07/19 17:58:28;;;;;;;4.20;3.80;;;;;;;38.31;15.35;101031.03;5739004;22;20054;-89
2022/07/19 18:38:58;;;;;;;11.40;3.58;;;;;;;34.76;20.01;101011.16;4988013;28;20134;-86
2022/07/19 18:42:35;;;;;;;4.55;3.50;;;;;;;34.84;20.49;101028.50;4989786;28;20393;-86
2022/07/19 18:48:45;;;;;;;6.40;3.40;;;;;;;34.36;21.21;101019.25;4895467;29;20052;-86
2022/07/19 18:56:32;;;;;;;3.57;3.00;;;;;;;33.91;21.64;101036.91;5342514;23;20071;-88
2022/07/19 18:58:57;;;;;;;8.13;3.33;;;;;;;33.77;22.71;101029.53;5053625;28;20677;-85
2022/07/19 19:01:22;;;;;;;8.93;3.35;;;;;;;33.66;22.59;101040.75;5054373;28;20029;-86
2022/07/19 19:14:09;;;;;;;9.87;3.20;;;;;;;32.91;23.34;101029.09;5852922;23;20312;-85
2022/07/19 20:28:51;;;;;;;13.20;3.45;;;;;;;29.59;28.73;101058.28;4993509;28;20045;-86
2022/07/19 20:53:05;;;;;;;4.30;3.60;;;;;;;28.68;29.80;101048.34;5716506;23;20058;-87
2022/07/19 20:56:06;;;;;;;10.02;3.67;;;;;;;28.54;30.18;101060.81;5009548;28;20040;-88
2022/07/19 21:43:42;;;;;;;;;;;;;;;;;;;;;
2022/07/19 21:55:27;;;;;;;5.75;4.30;;;;;;;27.68;30.76;101065.94;5100158;23;20052;-88
2022/07/19 21:57:55;;;;;;;12.73;4.13;;;;;;;27.60;30.25;101059.53;5012072;28;20030;-88
2022/07/19 22:31:18;;;;;;;8.15;3.80;;;;;;;26.68;32.30;101060.25;5026735;28;20136;-88
2022/07/19 22:41:04;;;;;;;7.78;4.10;;;;;;;26.46;32.38;101057.06;5019021;28;20073;-88
2022/07/19 23:03:16;;;;;;;13.60;4.43;;;;;;;26.04;33.34;101052.22;5137704;23;20053;-88
2022/07/19 23:05:43;;;;;;;11.10;3.73;;;;;;;25.96;33.81;101052.09;5016020;28;20030;-88
2022/07/19 23:08:09;;;;;;;11.68;3.90;;;;;;;25.92;33.24;101051.22;5016635;28;20465;-87
2022/07/19 23:10:35;;;;;;;7.93;3.70;;;;;;;25.88;33.43;101049.53;5014393;28;20168;-88
2022/07/19 23:13:01;;;;;;;11.00;3.90;;;;;;;25.81;34.05;101050.19;5015329;28;20473;-88
2022/07/19 23:15:30;;;;;;;11.05;3.80;;;;;;;25.76;34.25;101047.69;5015810;28;20030;-87
2022/07/19 23:48:59;;;;;;;;;;;;;;;;;;;;;
